createdAt,value
2022-10-30T00:00:00.212Z,33.50
2022-10-30T00:02:27.091Z,34.78
2022-10-30T00:04:53.950Z,30.70
2022-10-30T00:07:20.824Z,29.60
2022-10-30T00:09:47.629Z,33.95
2022-10-30T00:12:20.977Z,29.10
2022-10-30T00:14:47.847Z,28.55
2022-10-30T00:17:14.910Z,34.58
2022-10-30T00:19:41.745Z,29.77
2022-10-30T00:22:09.356Z,28.58
2022-10-30T00:24:36.209Z,28.77
2022-10-30T00:27:03.043Z,29.05
2022-10-30T00:29:30.063Z,34.75
2022-10-30T00:31:57.031Z,33.33
2022-10-30T00:34:23.996Z,34.05
2022-10-30T00:36:50.898Z,33.05
2022-10-30T00:39:17.922Z,25.17
2022-10-30T00:41:45.292Z,40.17
2022-10-30T00:44:30.927Z,29.88
2022-10-30T00:46:58.996Z,27.63
2022-10-30T00:49:26.710Z,29.88
2022-10-30T00:51:54.690Z,30.58
2022-10-30T00:54:23.622Z,30.63
2022-10-30T00:56:52.003Z,30.38
2022-10-30T00:59:24.405Z,31.35
2022-10-30T01:01:53.600Z,31.98
2022-10-30T01:04:27.292Z,29.20
2022-10-30T01:06:58.421Z,30.27
2022-10-30T01:09:25.455Z,31.35
2022-10-30T01:11:52.488Z,32.42
2022-10-30T01:14:21.429Z,32.55
2022-10-30T01:17:11.634Z,34.22
2022-10-30T01:20:06.613Z,31.42
2022-10-30T01:22:47.605Z,31.95
2022-10-30T01:25:38.861Z,32.55
2022-10-30T01:28:12.847Z,26.48
2022-10-30T01:30:45.989Z,25.52
2022-10-30T01:33:16.135Z,23.48
2022-10-30T01:36:04.768Z,27.15
2022-10-30T01:38:39.119Z,26.38
2022-10-30T01:41:06.145Z,25.23
2022-10-30T01:43:34.056Z,20.65
2022-10-30T01:46:49.763Z,24.83
2022-10-30T01:49:46.126Z,21.42
2022-10-30T01:52:41.798Z,23.17
2022-10-30T01:56:02.470Z,28.45
2022-10-30T01:58:41.556Z,30.67
2022-10-30T02:01:08.572Z,28.02
2022-10-30T02:03:35.999Z,29.63
2022-10-30T02:06:03.070Z,28.88
2022-10-30T02:08:30.413Z,32.95
2022-10-30T02:10:58.316Z,31.50
2022-10-30T02:13:45.617Z,30.83
2022-10-30T02:16:13.828Z,31.98
2022-10-30T02:18:42.719Z,34.00
2022-10-30T02:21:09.761Z,36.15
2022-10-30T02:23:38.366Z,34.00
2022-10-30T02:26:05.432Z,34.45
2022-10-30T02:28:32.486Z,35.92
2022-10-30T02:30:59.467Z,38.65
2022-10-30T02:33:26.413Z,34.20
2022-10-30T02:35:54.645Z,36.80
2022-10-30T02:38:21.671Z,37.80
2022-10-30T02:40:50.598Z,35.42
2022-10-30T02:43:17.502Z,28.42
2022-10-30T02:45:44.673Z,29.38
2022-10-30T02:48:12.618Z,32.90
2022-10-30T02:50:39.483Z,34.15
2022-10-30T02:53:06.433Z,36.33
2022-10-30T02:55:33.272Z,34.30
2022-10-30T02:58:00.158Z,30.35
2022-10-30T03:00:27.120Z,31.60
2022-10-30T03:02:57.503Z,32.28
2022-10-30T03:05:24.768Z,29.35
2022-10-30T03:07:51.691Z,29.70
2022-10-30T03:10:18.942Z,33.97
2022-10-30T03:12:45.828Z,33.03
2022-10-30T03:15:12.731Z,28.70
2022-10-30T03:17:42.596Z,28.63
2022-10-30T03:20:11.821Z,31.65
2022-10-30T03:22:38.864Z,35.10
2022-10-30T03:25:06.114Z,27.20
2022-10-30T03:27:33.808Z,29.65
2022-10-30T03:30:00.671Z,33.88
2022-10-30T03:32:28.196Z,31.15
2022-10-30T03:34:55.160Z,29.45
2022-10-30T03:37:22.232Z,35.20
2022-10-30T03:39:49.859Z,31.60
2022-10-30T03:42:17.061Z,33.63
2022-10-30T03:49:10.941Z,33.28
2022-10-30T03:51:38.358Z,29.08
2022-10-30T03:54:06.703Z,30.67
2022-10-30T03:56:33.645Z,29.33
2022-10-30T03:59:01.847Z,29.88
2022-10-30T04:01:30.131Z,25.45
2022-10-30T04:03:57.499Z,31.02
2022-10-30T04:06:25.636Z,27.40
2022-10-30T04:08:55.292Z,26.75
2022-10-30T04:11:23.694Z,28.02
2022-10-30T04:13:50.747Z,26.13
2022-10-30T04:16:17.617Z,27.75
2022-10-30T04:18:45.186Z,26.90
2022-10-30T04:21:12.221Z,30.42
2022-10-30T04:23:39.338Z,34.40
2022-10-30T04:26:06.511Z,35.85
2022-10-30T08:58:45.503Z,30.75
2022-10-30T09:01:19.856Z,32.55
2022-10-30T09:04:05.333Z,32.10
2022-10-30T09:07:06.432Z,28.38
2022-10-30T09:09:57.778Z,33.35
2022-10-30T09:12:27.059Z,32.92
2022-10-30T09:14:53.974Z,31.90
2022-10-30T09:17:20.967Z,30.90
2022-10-30T09:22:30.123Z,29.25
2022-10-30T09:24:56.992Z,30.15
2022-10-30T09:27:47.974Z,28.83
2022-10-30T09:30:16.665Z,30.40
2022-10-30T09:32:49.916Z,30.65
2022-10-30T09:35:20.513Z,28.63
2022-10-30T09:37:49.505Z,27.95
2022-10-30T09:40:42.799Z,26.80
2022-10-30T09:43:20.558Z,27.08
2022-10-30T09:45:53.533Z,20.67
2022-10-30T09:48:43.659Z,24.85
2022-10-30T09:51:36.893Z,24.98
2022-10-30T09:54:25.760Z,23.55
2022-10-30T09:57:16.542Z,27.52
2022-10-30T10:00:22.830Z,21.60
2022-10-30T10:03:04.255Z,23.60
2022-10-30T10:05:51.429Z,20.38
2022-10-30T10:08:59.729Z,20.75
2022-10-30T10:11:53.825Z,23.15
2022-10-30T10:14:30.821Z,20.17
2022-10-30T10:17:00.187Z,20.77
2022-10-30T10:19:38.406Z,18.05
2022-10-30T10:22:22.502Z,21.58
2022-10-30T10:24:49.806Z,22.98
2022-10-30T10:27:28.724Z,17.98
2022-10-30T10:30:01.569Z,21.80
2022-10-30T10:32:28.780Z,15.85
2022-10-30T10:34:58.806Z,14.45
2022-10-30T10:37:39.063Z,16.65
2022-10-30T10:40:37.946Z,20.35
2022-10-30T10:43:33.474Z,15.00
2022-10-30T10:46:32.672Z,18.92
2022-10-30T10:49:18.419Z,21.40
2022-10-30T10:51:51.352Z,15.57
2022-10-30T10:54:35.176Z,14.68
2022-10-30T10:57:06.391Z,15.18
2022-10-30T10:59:42.211Z,16.80
2022-10-30T11:02:09.272Z,16.05
2022-10-30T11:04:45.458Z,19.05
2022-10-30T11:07:26.691Z,19.15
2022-10-30T11:09:54.900Z,17.58
2022-10-30T11:12:33.744Z,16.58
2022-10-30T11:15:22.579Z,14.63
2022-10-30T11:18:03.271Z,13.55
2022-10-30T11:20:54.030Z,16.88
2022-10-30T11:23:45.653Z,16.15
2022-10-30T11:26:18.481Z,18.35
2022-10-30T11:29:04.550Z,16.20
2022-10-30T11:31:40.409Z,21.60
2022-10-30T11:34:20.517Z,13.40
2022-10-30T11:36:54.313Z,6.90
2022-10-30T11:39:27.265Z,7.72
2022-10-30T11:42:15.310Z,8.25
2022-10-30T11:44:50.661Z,6.43
2022-10-30T11:47:23.043Z,8.57
2022-10-30T11:50:01.404Z,4.78
2022-10-30T11:52:28.527Z,4.95
2022-10-30T11:55:18.745Z,4.30
2022-10-30T11:57:50.091Z,4.80
2022-10-30T12:00:26.026Z,9.40
2022-10-30T12:02:56.330Z,4.72
2022-10-30T12:05:26.276Z,5.28
2022-10-30T12:07:54.314Z,7.30
2022-10-30T12:10:28.961Z,4.45
2022-10-30T12:12:56.885Z,7.35
2022-10-30T12:15:27.817Z,5.68
2022-10-30T12:18:03.203Z,7.50
2022-10-30T12:20:30.458Z,5.72
2022-10-30T12:22:58.422Z,7.50
2022-10-30T12:25:29.595Z,6.18
2022-10-30T12:28:15.691Z,7.88
2022-10-30T12:30:58.493Z,6.63
2022-10-30T12:33:28.273Z,7.00
2022-10-30T12:36:06.547Z,7.55
2022-10-30T12:38:47.398Z,7.70
2022-10-30T12:41:51.702Z,14.13
2022-10-30T12:44:38.447Z,10.23
2022-10-30T12:47:29.402Z,7.88
2022-10-30T12:50:23.585Z,9.82
2022-10-30T12:53:24.561Z,8.55
2022-10-30T12:55:56.900Z,8.48
2022-10-30T12:59:05.094Z,8.60
2022-10-30T13:02:13.946Z,9.15
2022-10-30T13:04:47.823Z,8.02
2022-10-30T13:07:29.489Z,7.50
2022-10-30T13:10:23.903Z,7.32
2022-10-30T13:12:56.508Z,7.88
2022-10-30T13:15:50.159Z,7.97
2022-10-30T13:18:26.899Z,8.70
2022-10-30T13:21:11.558Z,7.53
2022-10-30T13:24:02.500Z,7.18
2022-10-30T13:26:33.970Z,7.50
2022-10-30T13:29:08.113Z,9.32
2022-10-30T13:31:57.802Z,8.25
2022-10-30T13:35:20.547Z,9.23
2022-10-30T13:38:04.566Z,7.28
2022-10-30T13:40:41.927Z,7.43
2022-10-30T13:43:50.154Z,7.88
2022-10-30T13:46:27.557Z,10.88
2022-10-30T13:48:57.346Z,11.55
2022-10-30T13:51:35.946Z,9.18
2022-10-30T13:54:18.249Z,9.75
2022-10-30T13:56:47.673Z,10.93
2022-10-30T13:59:17.398Z,11.50
2022-10-30T14:02:01.569Z,11.73
2022-10-30T14:04:32.105Z,9.40
2022-10-30T14:07:27.503Z,10.27
2022-10-30T14:10:08.755Z,11.40
2022-10-30T14:12:54.537Z,14.88
2022-10-30T14:15:24.401Z,9.10
2022-10-30T14:18:43.834Z,7.63
2022-10-30T14:21:31.570Z,9.40
2022-10-30T14:24:13.326Z,8.88
2022-10-30T14:26:50.092Z,8.40
2022-10-30T14:29:46.815Z,7.78
2022-10-30T14:32:13.614Z,7.82
2022-10-30T14:34:58.606Z,8.25
2022-10-30T14:37:28.098Z,8.10
2022-10-30T14:39:56.713Z,7.30
2022-10-30T14:42:52.830Z,8.35
2022-10-30T14:45:27.967Z,8.25
2022-10-30T14:48:16.032Z,8.15
2022-10-30T14:50:50.102Z,11.25
2022-10-30T14:53:26.029Z,12.55
2022-10-30T14:56:18.946Z,11.43
2022-10-30T14:59:14.179Z,9.90
2022-10-30T15:01:55.198Z,8.93
2022-10-30T15:04:25.130Z,7.65
2022-10-30T15:07:08.720Z,11.35
2022-10-30T15:09:50.667Z,9.88
2022-10-30T15:12:48.222Z,9.35
2022-10-30T15:15:19.597Z,11.32
2022-10-30T15:17:51.615Z,14.32
2022-10-30T15:20:27.756Z,11.10
2022-10-30T15:23:04.662Z,9.05
2022-10-30T15:25:37.375Z,8.90
2022-10-30T15:28:04.845Z,10.20
2022-10-30T15:30:31.805Z,11.65
2022-10-30T15:32:59.026Z,8.75
2022-10-30T15:35:27.753Z,11.27
2022-10-30T15:37:58.711Z,12.90
2022-10-30T15:40:25.865Z,10.10
2022-10-30T15:42:53.945Z,9.43
2022-10-30T15:45:47.554Z,12.30
2022-10-30T15:48:23.463Z,9.85
2022-10-30T15:51:07.000Z,12.43
2022-10-30T15:53:42.974Z,12.90
2022-10-30T15:56:44.521Z,11.23
2022-10-30T15:59:30.160Z,12.00
2022-10-30T16:01:58.847Z,11.63
2022-10-30T16:04:31.368Z,13.52
2022-10-30T16:07:09.437Z,13.48
2022-10-30T16:09:36.274Z,15.68
2022-10-30T16:12:07.734Z,13.80
2022-10-30T16:14:37.225Z,13.52
2022-10-30T16:17:04.635Z,15.98
2022-10-30T16:19:47.153Z,12.13
2022-10-30T16:22:39.515Z,15.15
2022-10-30T16:25:12.930Z,17.25
2022-10-30T16:27:46.373Z,16.90
2022-10-30T16:30:15.111Z,13.00
2022-10-30T16:32:48.427Z,12.65
2022-10-30T16:35:15.497Z,14.15
2022-10-30T16:37:43.387Z,14.40
2022-10-30T16:40:17.697Z,13.55
2022-10-30T16:42:54.297Z,13.60
2022-10-30T16:45:24.163Z,17.65
2022-10-30T16:48:09.233Z,14.57
2022-10-30T16:50:38.119Z,16.38
2022-10-30T16:53:06.670Z,13.40
2022-10-30T16:55:36.031Z,18.38
2022-10-30T16:58:03.241Z,18.10
2022-10-30T17:00:35.399Z,18.45
2022-10-30T17:03:10.112Z,18.98
2022-10-30T17:05:38.373Z,17.27
2022-10-30T17:08:18.696Z,16.35
2022-10-30T17:10:48.355Z,17.05
2022-10-30T17:13:56.643Z,12.20
2022-10-30T17:16:31.974Z,14.73
2022-10-30T17:19:02.126Z,17.48
2022-10-30T17:21:40.835Z,15.15
2022-10-30T17:24:22.103Z,17.20
2022-10-30T17:26:57.939Z,15.90
2022-10-30T17:29:45.277Z,15.77
2022-10-30T17:32:29.463Z,15.95
2022-10-30T17:35:02.326Z,14.45
2022-10-30T17:37:29.438Z,14.40
2022-10-30T17:39:56.349Z,15.18
2022-10-30T17:42:23.205Z,13.13
2022-10-30T17:44:50.241Z,15.20
2022-10-30T17:47:19.323Z,14.65
2022-10-30T17:49:46.777Z,15.43
2022-10-30T17:52:16.808Z,14.07
2022-10-30T17:54:44.247Z,16.45
2022-10-30T17:57:12.441Z,16.92
2022-10-30T17:59:39.984Z,17.48
2022-10-30T18:02:15.710Z,17.88
2022-10-30T18:04:43.458Z,17.80
2022-10-30T18:07:11.802Z,19.58
2022-10-30T18:09:39.837Z,20.55
2022-10-30T18:12:11.023Z,21.02
2022-10-30T18:14:37.961Z,19.10
2022-10-30T18:17:06.204Z,16.38
2022-10-30T18:19:33.142Z,19.45
2022-10-30T18:21:59.976Z,17.55
2022-10-30T18:24:26.946Z,17.25
2022-10-30T18:26:54.924Z,15.70
2022-10-30T18:29:21.970Z,19.63
2022-10-30T18:31:49.075Z,17.67
2022-10-30T18:34:20.491Z,16.38
2022-10-30T18:36:48.093Z,18.05
2022-10-30T18:39:15.205Z,16.80
2022-10-30T18:41:46.578Z,17.20
2022-10-30T18:44:16.186Z,18.70
2022-10-30T18:46:43.769Z,16.65
2022-10-30T18:49:10.687Z,20.85
2022-10-30T18:51:37.987Z,19.05
2022-10-30T18:54:13.438Z,17.48
2022-10-30T18:56:40.411Z,16.75
2022-10-30T18:59:07.320Z,16.58
2022-10-30T19:01:35.198Z,14.20
2022-10-30T19:04:03.961Z,20.83
2022-10-30T19:06:32.923Z,18.05
2022-10-30T19:08:59.847Z,17.30
2022-10-30T19:11:28.272Z,18.00
2022-10-30T19:13:57.681Z,18.80
2022-10-30T19:16:25.725Z,19.52
2022-10-30T19:18:53.325Z,22.45
2022-10-30T19:21:25.689Z,20.63
2022-10-30T19:23:53.947Z,16.00
2022-10-30T19:26:21.017Z,16.30
2022-10-30T19:28:47.987Z,16.63
2022-10-30T19:31:17.308Z,18.90
2022-10-30T19:33:44.987Z,17.30
2022-10-30T19:36:30.814Z,17.83
2022-10-30T19:38:58.185Z,16.92
2022-10-30T19:41:25.456Z,13.10
2022-10-30T19:43:53.259Z,20.10
2022-10-30T19:46:20.654Z,15.60
2022-10-30T19:49:03.108Z,15.50
2022-10-30T19:51:30.215Z,17.45
2022-10-30T19:53:57.402Z,16.52
2022-10-30T19:56:24.312Z,17.25
2022-10-30T19:58:51.187Z,17.58
2022-10-30T20:01:18.417Z,17.05
2022-10-30T20:03:45.652Z,18.25
2022-10-30T20:06:13.682Z,17.77
2022-10-30T20:08:41.321Z,16.95
2022-10-30T20:11:08.673Z,16.73
2022-10-30T20:13:37.070Z,21.60
2022-10-30T20:16:05.634Z,19.27
2022-10-30T20:18:34.783Z,15.20
2022-10-30T20:21:04.896Z,19.77
2022-10-30T20:23:31.833Z,24.75
2022-10-30T20:26:02.210Z,18.70
2022-10-30T20:28:36.621Z,18.65
2022-10-30T20:31:04.451Z,22.23
2022-10-30T20:33:31.598Z,18.52
2022-10-30T20:35:58.509Z,17.77
2022-10-30T20:38:32.809Z,22.30
2022-10-30T20:41:03.139Z,21.08
2022-10-30T20:43:33.147Z,17.58
2022-10-30T20:46:00.733Z,19.67
2022-10-30T20:48:28.588Z,17.30
2022-10-30T20:50:56.931Z,20.48
2022-10-30T20:53:23.863Z,18.80
2022-10-30T20:55:51.035Z,20.60
2022-10-30T20:58:18.148Z,18.70
2022-10-30T21:00:45.284Z,20.45
2022-10-30T21:03:14.519Z,20.70
2022-10-30T21:05:45.026Z,20.38
2022-10-30T21:08:15.639Z,19.40
2022-10-30T21:10:42.839Z,21.88
2022-10-30T21:13:11.548Z,21.50
2022-10-30T21:15:43.274Z,19.33
2022-10-30T21:18:12.689Z,21.05
2022-10-30T21:20:41.256Z,20.08
2022-10-30T21:23:08.865Z,19.92
2022-10-30T21:25:36.066Z,25.77
2022-10-30T21:28:03.334Z,22.25
2022-10-30T21:30:30.436Z,22.02
2022-10-30T21:32:58.803Z,20.92
2022-10-30T21:35:26.535Z,23.08
2022-10-30T21:37:53.352Z,23.95
2022-10-30T21:40:20.243Z,22.48
2022-10-30T21:42:50.260Z,24.88
2022-10-30T21:45:17.333Z,21.92
2022-10-30T21:47:44.186Z,27.83
2022-10-30T21:50:12.648Z,22.77
2022-10-30T21:52:40.540Z,21.60
2022-10-30T21:55:08.377Z,21.73
2022-10-30T21:57:35.849Z,23.52
2022-10-30T22:00:05.849Z,23.80
2022-10-30T22:02:35.040Z,21.73
